Time;durP1;ratioP1;P1;durP2;ratioP2;P2;SDS_P1;SDS_P2;PMS_P1;PMS_P2;Temp;Humidity;BMP_temperature;BMP_pressure;BME280_temperature;BME280_humidity;BME280_pressure;Samples;Min_cycle;Max_cycle;Signal;HPM_P1;HPM_P2
2023/07/19 00:01:05;;;;;;;58.92;6.05;;;;;;;;;;4980337;28;20066;-64
2023/07/19 00:03:34;;;;;;;93.03;7.78;;;;;;;;;;4976831;28;20097;-65
2023/07/19 00:06:03;;;;;;;72.40;6.88;;;;;;;;;;4980750;28;20043;-65
2023/07/19 00:08:30;;;;;;;53.17;5.57;;;;;;;;;;4977344;28;20042;-65
2023/07/19 00:10:57;;;;;;;55.17;5.68;;;;;;;;;;4975494;28;20057;-64
2023/07/19 00:13:24;;;;;;;62.00;6.00;;;;;;;;;;4977321;28;20049;-64
2023/07/19 00:15:50;;;;;;;31.35;3.97;;;;;;;;;;4978095;28;20070;-64
2023/07/19 00:18:17;;;;;;;80.90;7.63;;;;;;;;;;4979033;28;20121;-64
2023/07/19 00:20:43;;;;;;;27.00;4.30;;;;;;;;;;4978022;28;20109;-63
2023/07/19 00:26:02;;;;;;;68.60;7.03;;;;;;;;;;4980010;28;20117;-64
2023/07/19 00:28:28;;;;;;;49.15;5.45;;;;;;;;;;4975334;28;20042;-64
2023/07/19 00:30:59;;;;;;;64.82;6.32;;;;;;;;;;4984345;28;20039;-64
2023/07/19 00:33:27;;;;;;;44.38;5.38;;;;;;;;;;4978328;28;20058;-65
2023/07/19 00:35:54;;;;;;;85.35;7.43;;;;;;;;;;4985108;28;20464;-66
2023/07/19 00:38:21;;;;;;;50.95;5.68;;;;;;;;;;4977528;28;20054;-65
2023/07/19 00:40:48;;;;;;;59.33;5.97;;;;;;;;;;4978600;28;20049;-64
2023/07/19 00:43:15;;;;;;;46.50;5.18;;;;;;;;;;4997093;28;20061;-63
2023/07/19 00:45:45;;;;;;;60.05;6.05;;;;;;;;;;4980355;28;20134;-64
2023/07/19 00:48:11;;;;;;;79.55;7.45;;;;;;;;;;4986252;28;20064;-64
2023/07/19 00:50:38;;;;;;;65.30;6.07;;;;;;;;;;4988249;28;20054;-63
2023/07/19 00:53:05;;;;;;;40.20;5.10;;;;;;;;;;4978140;28;20117;-64
2023/07/19 00:55:31;;;;;;;83.75;7.50;;;;;;;;;;4979120;28;20097;-64
2023/07/19 00:57:58;;;;;;;60.88;6.60;;;;;;;;;;4994722;28;20145;-63
2023/07/19 01:00:25;;;;;;;43.92;5.75;;;;;;;;;;4980801;28;20034;-65
2023/07/19 01:02:52;;;;;;;48.72;5.60;;;;;;;;;;4977431;28;20183;-65
2023/07/19 01:05:19;;;;;;;43.05;5.57;;;;;;;;;;4980985;28;20133;-63
2023/07/19 01:07:46;;;;;;;61.08;5.97;;;;;;;;;;4978687;28;20046;-63
2023/07/19 01:10:13;;;;;;;51.97;5.93;;;;;;;;;;4977053;28;20074;-64
2023/07/19 01:12:42;;;;;;;54.67;7.10;;;;;;;;;;4976637;28;20045;-64
2023/07/19 01:15:09;;;;;;;77.72;7.38;;;;;;;;;;4979626;28;20879;-64
2023/07/19 01:17:36;;;;;;;47.10;5.25;;;;;;;;;;4981390;28;20043;-63
2023/07/19 01:20:03;;;;;;;57.85;6.03;;;;;;;;;;4977394;28;20773;-64
2023/07/19 01:22:31;;;;;;;105.80;9.18;;;;;;;;;;4978970;28;20100;-63
2023/07/19 01:24:59;;;;;;;60.75;6.25;;;;;;;;;;4985409;28;20046;-63
2023/07/19 01:27:27;;;;;;;63.42;6.20;;;;;;;;;;4994174;28;20572;-64
2023/07/19 01:29:53;;;;;;;70.15;6.78;;;;;;;;;;4979305;28;20043;-64
2023/07/19 01:32:20;;;;;;;67.13;6.65;;;;;;;;;;4979747;28;20452;-64
2023/07/19 01:34:47;;;;;;;39.22;5.15;;;;;;;;;;4978921;28;20042;-64
2023/07/19 01:37:13;;;;;;;62.88;6.47;;;;;;;;;;4973686;28;20405;-64
2023/07/19 01:39:42;;;;;;;52.22;5.82;;;;;;;;;;4977724;28;20062;-64
2023/07/19 01:42:09;;;;;;;78.75;7.65;;;;;;;;;;4976872;28;20054;-64
2023/07/19 01:44:35;;;;;;;54.15;5.78;;;;;;;;;;4980010;28;20539;-64
2023/07/19 01:47:02;;;;;;;55.70;6.20;;;;;;;;;;4978434;28;20409;-64
2023/07/19 01:49:28;;;;;;;58.35;7.10;;;;;;;;;;4985153;28;20074;-64
2023/07/19 01:51:55;;;;;;;62.42;6.50;;;;;;;;;;4977737;28;20050;-64
2023/07/19 01:54:22;;;;;;;41.70;5.28;;;;;;;;;;4978307;28;20046;-64
2023/07/19 01:56:48;;;;;;;42.75;4.97;;;;;;;;;;4976477;28;20125;-64
2023/07/19 01:59:15;;;;;;;49.60;5.40;;;;;;;;;;4989134;28;20202;-65
2023/07/19 02:01:42;;;;;;;111.35;9.38;;;;;;;;;;4973215;23;20058;-63
2023/07/19 02:04:09;;;;;;;73.07;7.38;;;;;;;;;;5026858;28;20567;-64
2023/07/19 02:06:36;;;;;;;61.70;6.18;;;;;;;;;;5028667;28;20050;-63
2023/07/19 02:09:03;;;;;;;42.80;5.25;;;;;;;;;;5024188;28;20048;-66
2023/07/19 02:11:32;;;;;;;74.60;7.25;;;;;;;;;;5020824;28;20069;-65
2023/07/19 02:13:58;;;;;;;53.53;5.60;;;;;;;;;;5003271;28;20045;-65
2023/07/19 02:16:25;;;;;;;85.22;8.00;;;;;;;;;;5025346;28;20056;-65
2023/07/19 02:18:51;;;;;;;40.63;5.45;;;;;;;;;;5006630;28;20042;-66
2023/07/19 02:21:18;;;;;;;66.57;6.30;;;;;;;;;;5022297;28;20033;-66
2023/07/19 02:23:45;;;;;;;41.40;5.32;;;;;;;;;;5024902;28;20399;-66
2023/07/19 02:26:13;;;;;;;32.63;4.45;;;;;;;;;;5027255;28;20580;-65
2023/07/19 02:28:39;;;;;;;78.65;7.38;;;;;;;;;;5024348;28;20068;-65
2023/07/19 02:31:06;;;;;;;62.65;6.65;;;;;;;;;;5024672;28;20075;-65
2023/07/19 02:33:33;;;;;;;51.50;6.03;;;;;;;;;;5028096;28;20037;-65
2023/07/19 02:35:59;;;;;;;72.55;7.05;;;;;;;;;;5005947;28;20064;-66
2023/07/19 02:38:26;;;;;;;41.85;5.28;;;;;;;;;;5025908;28;20037;-66
2023/07/19 02:40:59;;;;;;;43.85;5.28;;;;;;;;;;5020237;28;20045;-66
2023/07/19 02:43:26;;;;;;;;;;;;;;;;;;5024987;28;20041;-66
2023/07/19 02:45:53;;;;;;;39.85;4.82;;;;;;;;;;5015097;28;19925;-66
2023/07/19 02:48:20;;;;;;;23.63;4.03;;;;;;;;;;5008293;28;20153;-65
2023/07/19 02:50:47;;;;;;;47.13;5.50;;;;;;;;;;5008912;28;20107;-66
2023/07/19 02:53:19;;;;;;;43.25;5.32;;;;;;;;;;5006614;28;20061;-66
2023/07/19 02:55:45;;;;;;;61.95;6.60;;;;;;;;;;5025314;28;20045;-65
2023/07/19 02:58:12;;;;;;;55.92;5.80;;;;;;;;;;5007898;28;20541;-65
2023/07/19 03:00:40;;;;;;;70.18;6.97;;;;;;;;;;5026223;28;20131;-65
2023/07/19 03:03:11;;;;;;;54.70;6.35;;;;;;;;;;5022319;28;20140;-65
2023/07/19 03:05:42;;;;;;;66.63;6.78;;;;;;;;;;5023115;28;20091;-65
2023/07/19 03:08:09;;;;;;;63.15;6.70;;;;;;;;;;5026413;28;20120;-65
2023/07/19 03:10:36;;;;;;;75.63;7.45;;;;;;;;;;5024749;28;20042;-65
2023/07/19 03:13:03;;;;;;;61.30;6.22;;;;;;;;;;5024602;28;20123;-65
2023/07/19 03:15:32;;;;;;;48.75;5.50;;;;;;;;;;5006371;28;20079;-65
2023/07/19 03:18:00;;;;;;;71.90;7.25;;;;;;;;;;5008471;28;20112;-65
2023/07/19 03:20:27;;;;;;;49.17;5.80;;;;;;;;;;5008216;28;20157;-66
2023/07/19 03:22:55;;;;;;;57.42;6.50;;;;;;;;;;5028087;28;20128;-64
2023/07/19 03:25:22;;;;;;;52.30;5.57;;;;;;;;;;5026997;28;20099;-65
2023/07/19 03:27:50;;;;;;;56.28;5.93;;;;;;;;;;5026723;28;20069;-65
2023/07/19 03:30:17;;;;;;;51.55;6.30;;;;;;;;;;5001340;28;20631;-65
2023/07/19 03:32:45;;;;;;;46.78;5.75;;;;;;;;;;5025777;28;20041;-65
2023/07/19 03:35:11;;;;;;;53.80;6.18;;;;;;;;;;5025599;28;20053;-65
2023/07/19 03:37:38;;;;;;;91.75;8.60;;;;;;;;;;5006538;28;20054;-65
2023/07/19 03:40:06;;;;;;;54.83;6.22;;;;;;;;;;5024569;28;20049;-65
2023/07/19 03:42:33;;;;;;;50.40;6.07;;;;;;;;;;5005522;28;20053;-66
2023/07/19 03:45:00;;;;;;;47.08;5.53;;;;;;;;;;5024003;28;20156;-64
2023/07/19 03:47:27;;;;;;;48.90;5.68;;;;;;;;;;5006825;28;20168;-65
2023/07/19 03:49:54;;;;;;;59.80;6.45;;;;;;;;;;5026874;28;20420;-66
2023/07/19 03:52:20;;;;;;;60.97;6.80;;;;;;;;;;4992623;28;20080;-66
2023/07/19 03:54:48;;;;;;;57.50;6.63;;;;;;;;;;5014534;28;20045;-65
2023/07/19 03:57:16;;;;;;;59.40;6.22;;;;;;;;;;5020525;28;20052;-66
2023/07/19 03:59:42;;;;;;;60.10;6.57;;;;;;;;;;5006899;28;20069;-67
2023/07/19 04:02:09;;;;;;;68.22;7.75;;;;;;;;;;5010232;28;20057;-66
2023/07/19 04:04:35;;;;;;;84.30;8.13;;;;;;;;;;5002984;28;20057;-68
2023/07/19 04:07:02;;;;;;;49.13;5.55;;;;;;;;;;5011442;28;20141;-65
2023/07/19 04:09:29;;;;;;;63.15;6.97;;;;;;;;;;5009984;28;20546;-67
2023/07/19 04:11:55;;;;;;;45.88;5.95;;;;;;;;;;5020010;28;20446;-66
2023/07/19 04:14:22;;;;;;;38.15;5.30;;;;;;;;;;5031245;28;20124;-65
2023/07/19 04:16:48;;;;;;;41.85;5.72;;;;;;;;;;5030262;28;20049;-66
2023/07/19 04:19:15;;;;;;;62.45;6.60;;;;;;;;;;5009404;28;20050;-65
2023/07/19 04:21:42;;;;;;;68.82;7.13;;;;;;;;;;5011387;28;20045;-65
2023/07/19 04:24:09;;;;;;;70.07;7.18;;;;;;;;;;5023879;28;20541;-66
2023/07/19 04:26:35;;;;;;;81.60;7.57;;;;;;;;;;5019010;28;20131;-65
2023/07/19 04:29:03;;;;;;;84.30;8.98;;;;;;;;;;5006625;28;20056;-64
2023/07/19 04:31:29;;;;;;;95.55;9.10;;;;;;;;;;5010671;28;20041;-65
2023/07/19 04:33:56;;;;;;;32.95;4.57;;;;;;;;;;5028082;28;20487;-65
2023/07/19 04:36:23;;;;;;;37.85;5.28;;;;;;;;;;5021704;28;20435;-64
2023/07/19 04:38:49;;;;;;;55.97;6.93;;;;;;;;;;5026246;28;20038;-64
2023/07/19 04:41:16;;;;;;;35.75;5.85;;;;;;;;;;5022781;28;20042;-64
2023/07/19 04:43:44;;;;;;;73.35;7.88;;;;;;;;;;5029731;28;20608;-63
2023/07/19 04:46:11;;;;;;;47.78;5.32;;;;;;;;;;5025101;28;20041;-64
2023/07/19 04:48:39;;;;;;;63.17;7.47;;;;;;;;;;5010938;28;20056;-64
2023/07/19 04:51:06;;;;;;;90.38;9.63;;;;;;;;;;5022477;28;20042;-64
2023/07/19 04:53:33;;;;;;;58.65;7.68;;;;;;;;;;5019543;28;20450;-64
2023/07/19 04:55:59;;;;;;;65.72;7.18;;;;;;;;;;5030779;28;20046;-64
2023/07/19 04:58:30;;;;;;;95.20;9.55;;;;;;;;;;5022158;28;20042;-64
2023/07/19 05:01:01;;;;;;;64.47;7.38;;;;;;;;;;5009472;28;20450;-64
2023/07/19 05:03:27;;;;;;;45.22;5.90;;;;;;;;;;5011919;28;20060;-65
2023/07/19 05:05:54;;;;;;;49.33;6.07;;;;;;;;;;5025510;28;20053;-64
2023/07/19 05:08:22;;;;;;;39.65;7.53;;;;;;;;;;5028337;28;20692;-65
2023/07/19 05:10:49;;;;;;;63.17;9.05;;;;;;;;;;5013185;28;20556;-63
2023/07/19 05:13:15;;;;;;;99.35;9.13;;;;;;;;;;5025262;28;20084;-64
2023/07/19 05:15:42;;;;;;;47.72;6.20;;;;;;;;;;5027411;28;20046;-65
2023/07/19 05:18:12;;;;;;;33.00;4.85;;;;;;;;;;5005518;28;20045;-65
2023/07/19 05:20:39;;;;;;;53.95;6.20;;;;;;;;;;5019036;28;20103;-63
2023/07/19 05:23:06;;;;;;;89.40;8.55;;;;;;;;;;5008916;28;20046;-63
2023/07/19 05:25:33;;;;;;;99.82;9.35;;;;;;;;;;5030641;28;20111;-64
2023/07/19 05:27:59;;;;;;;50.75;6.07;;;;;;;;;;5025806;28;20098;-61
2023/07/19 05:30:26;;;;;;;46.55;5.55;;;;;;;;;;5029182;28;20466;-62
2023/07/19 05:32:53;;;;;;;55.90;6.25;;;;;;;;;;5024990;28;20069;-63
2023/07/19 05:35:20;;;;;;;38.50;5.55;;;;;;;;;;5028901;28;20080;-63
2023/07/19 05:37:46;;;;;;;72.25;7.85;;;;;;;;;;5028744;28;20045;-64
2023/07/19 05:40:13;;;;;;;44.25;6.05;;;;;;;;;;5027935;28;20049;-63
2023/07/19 05:42:40;;;;;;;57.40;6.55;;;;;;;;;;5026753;28;20045;-64
2023/07/19 05:45:06;;;;;;;70.80;7.45;;;;;;;;;;5025966;28;20041;-63
2023/07/19 05:47:33;;;;;;;58.38;5.85;;;;;;;;;;5026394;28;20123;-64
2023/07/19 05:50:00;;;;;;;46.28;5.97;;;;;;;;;;5011045;28;20502;-63
2023/07/19 05:52:28;;;;;;;110.38;8.30;;;;;;;;;;5029628;28;20041;-63
2023/07/19 05:54:55;;;;;;;98.95;7.97;;;;;;;;;;5025534;28;20472;-63
2023/07/19 05:57:21;;;;;;;40.78;4.95;;;;;;;;;;5027848;28;20045;-63
2023/07/19 05:59:48;;;;;;;59.17;5.60;;;;;;;;;;5022696;28;20057;-64
2023/07/19 06:02:14;;;;;;;64.30;5.65;;;;;;;;;;5028085;28;20137;-62
2023/07/19 06:04:41;;;;;;;126.20;10.68;;;;;;;;;;5028870;28;20494;-65
2023/07/19 06:07:08;;;;;;;93.50;7.47;;;;;;;;;;5027281;28;20045;-63
2023/07/19 06:09:35;;;;;;;99.00;7.80;;;;;;;;;;5025663;28;20124;-63
2023/07/19 06:12:01;;;;;;;62.25;5.88;;;;;;;;;;5025313;28;20088;-64
2023/07/19 06:14:28;;;;;;;60.72;5.97;;;;;;;;;;5026809;28;20053;-63
2023/07/19 06:16:56;;;;;;;66.93;6.40;;;;;;;;;;5027365;28;20065;-63
2023/07/19 06:19:22;;;;;;;34.65;3.58;;;;;;;;;;5029731;28;20145;-66
2023/07/19 06:21:51;;;;;;;45.97;5.68;;;;;;;;;;5023678;28;20065;-63
2023/07/19 06:24:17;;;;;;;64.05;6.28;;;;;;;;;;5027067;28;20041;-63
2023/07/19 06:26:44;;;;;;;68.15;6.55;;;;;;;;;;5022298;28;20130;-66
2023/07/19 06:29:11;;;;;;;89.38;7.88;;;;;;;;;;5026106;28;20052;-65
2023/07/19 06:31:37;;;;;;;103.50;9.43;;;;;;;;;;5028045;28;20068;-65
2023/07/19 06:34:04;;;;;;;72.40;6.80;;;;;;;;;;5024622;28;20080;-65
2023/07/19 06:36:30;;;;;;;62.28;5.85;;;;;;;;;;5024875;28;20068;-65
2023/07/19 06:38:57;;;;;;;53.38;5.50;;;;;;;;;;5027672;28;20570;-65
2023/07/19 06:41:23;;;;;;;19.40;3.00;;;;;;;;;;5026756;28;20092;-65
2023/07/19 06:43:50;;;;;;;62.95;6.13;;;;;;;;;;5025511;28;20060;-65
2023/07/19 06:46:17;;;;;;;39.40;4.60;;;;;;;;;;5028285;28;20042;-66
2023/07/19 06:48:43;;;;;;;57.92;4.82;;;;;;;;;;5028892;28;20057;-65
2023/07/19 06:51:10;;;;;;;46.40;4.75;;;;;;;;;;5026544;28;20498;-65
2023/07/19 06:53:36;;;;;;;468.85;124.25;;;;;;;;;;5025666;28;20041;-66
2023/07/19 06:56:07;;;;;;;56.35;8.50;;;;;;;;;;5027949;28;20040;-64
2023/07/19 06:58:34;;;;;;;152.75;12.75;;;;;;;;;;5026619;28;20048;-65
2023/07/19 07:01:01;;;;;;;33.78;4.18;;;;;;;;;;5026853;28;20037;-65
2023/07/19 07:03:29;;;;;;;28.17;3.78;;;;;;;;;;4996694;28;20053;-65
2023/07/19 07:05:58;;;;;;;22.35;3.17;;;;;;;;;;5026554;28;20093;-65
2023/07/19 07:08:27;;;;;;;23.20;2.85;;;;;;;;;;5027415;28;20046;-67
2023/07/19 07:10:53;;;;;;;48.72;4.65;;;;;;;;;;5028394;28;20052;-65
2023/07/19 07:13:20;;;;;;;20.67;3.05;;;;;;;;;;5031315;28;20047;-64
2023/07/19 07:15:47;;;;;;;33.88;3.80;;;;;;;;;;5023930;28;20570;-64
2023/07/19 07:18:14;;;;;;;30.40;3.58;;;;;;;;;;5026692;28;20045;-65
2023/07/19 07:20:40;;;;;;;44.92;4.65;;;;;;;;;;5028121;28;20053;-65
2023/07/19 07:23:07;;;;;;;24.83;3.33;;;;;;;;;;5025051;28;20041;-68
2023/07/19 07:25:35;;;;;;;76.32;6.97;;;;;;;;;;5028365;28;20076;-66
2023/07/19 07:28:02;;;;;;;24.02;3.53;;;;;;;;;;5030090;28;20053;-68
2023/07/19 07:30:28;;;;;;;129.32;8.90;;;;;;;;;;5025940;28;20042;-70
2023/07/19 07:32:57;;;;;;;33.75;3.92;;;;;;;;;;5008017;28;20037;-70
2023/07/19 07:35:24;;;;;;;20.83;2.72;;;;;;;;;;5023076;28;20048;-69
2023/07/19 07:37:50;;;;;;;54.80;5.63;;;;;;;;;;5026276;28;20045;-70
2023/07/19 07:40:17;;;;;;;25.35;3.58;;;;;;;;;;5028148;28;20041;-71
2023/07/19 07:42:44;;;;;;;12.52;2.72;;;;;;;;;;5024743;28;20124;-71
2023/07/19 07:45:10;;;;;;;50.10;5.13;;;;;;;;;;5005883;28;20038;-69
2023/07/19 07:47:37;;;;;;;41.30;4.28;;;;;;;;;;5010293;28;20046;-68
2023/07/19 07:50:08;;;;;;;34.58;3.53;;;;;;;;;;5034257;28;20534;-68
2023/07/19 07:52:36;;;;;;;;;;;;;;;;;;5032621;28;20049;-69
2023/07/19 07:55:06;;;;;;;24.30;3.10;;;;;;;;;;5034605;28;20350;-68
2023/07/19 07:57:33;;;;;;;41.33;3.92;;;;;;;;;;5031994;28;20041;-69
2023/07/19 08:00:00;;;;;;;30.27;3.10;;;;;;;;;;5031588;28;20041;-69
2023/07/19 08:02:27;;;;;;;29.70;3.53;;;;;;;;;;5030592;28;20054;-68
2023/07/19 08:04:54;;;;;;;33.75;3.83;;;;;;;;;;5031355;28;20048;-69
2023/07/19 08:07:20;;;;;;;34.50;3.60;;;;;;;;;;5032419;28;20049;-69
2023/07/19 08:09:47;;;;;;;29.38;3.00;;;;;;;;;;5030107;28;20055;-68
2023/07/19 08:12:16;;;;;;;14.70;2.30;;;;;;;;;;5013068;28;20092;-69
2023/07/19 08:14:43;;;;;;;39.17;4.05;;;;;;;;;;5029675;28;20037;-69
2023/07/19 08:17:12;;;;;;;35.38;3.88;;;;;;;;;;5028077;28;20049;-69
2023/07/19 08:19:39;;;;;;;86.10;7.15;;;;;;;;;;5013202;28;20107;-69
2023/07/19 08:22:05;;;;;;;32.63;3.38;;;;;;;;;;5029374;28;20045;-68
2023/07/19 08:24:33;;;;;;;25.52;3.05;;;;;;;;;;5027679;28;20042;-68
2023/07/19 08:27:00;;;;;;;29.65;3.33;;;;;;;;;;5030078;28;20045;-68
2023/07/19 08:29:27;;;;;;;27.05;3.00;;;;;;;;;;5024248;28;20530;-68
2023/07/19 08:31:54;;;;;;;25.65;3.10;;;;;;;;;;5030953;28;20037;-71
2023/07/19 08:34:20;;;;;;;26.70;3.30;;;;;;;;;;5015899;28;20037;-67
2023/07/19 08:36:47;;;;;;;35.60;3.75;;;;;;;;;;5029940;28;20487;-71
2023/07/19 08:39:14;;;;;;;22.00;2.85;;;;;;;;;;5012214;28;20053;-78
2023/07/19 08:41:43;;;;;;;56.22;5.05;;;;;;;;;;5031958;28;20806;-77
2023/07/19 08:44:10;;;;;;;65.88;5.85;;;;;;;;;;5012291;28;20499;-79
2023/07/19 08:46:36;;;;;;;223.95;17.70;;;;;;;;;;5029443;28;20045;-72
2023/07/19 08:49:03;;;;;;;45.47;4.82;;;;;;;;;;5012859;28;20037;-71
2023/07/19 08:51:31;;;;;;;41.45;3.67;;;;;;;;;;4996078;28;20483;-71
2023/07/19 08:53:59;;;;;;;25.77;3.13;;;;;;;;;;5014131;28;20748;-72
2023/07/19 08:56:26;;;;;;;38.55;3.75;;;;;;;;;;5029354;28;20042;-71
2023/07/19 08:58:52;;;;;;;39.13;3.92;;;;;;;;;;5031442;28;20060;-72
2023/07/19 09:01:19;;;;;;;32.00;3.50;;;;;;;;;;5031155;28;20049;-71
2023/07/19 09:03:46;;;;;;;59.22;5.00;;;;;;;;;;5032654;28;20498;-74
2023/07/19 09:06:21;;;;;;;27.25;3.17;;;;;;;;;;5029221;28;20034;-71
2023/07/19 09:08:50;;;;;;;37.17;3.65;;;;;;;;;;5031899;28;20046;-75
2023/07/19 09:11:23;;;;;;;151.70;11.13;;;;;;;;;;5013388;28;20101;-77
2023/07/19 09:13:53;;;;;;;56.42;4.97;;;;;;;;;;5024064;28;20068;-77
2023/07/19 09:16:30;;;;;;;86.00;7.70;;;;;;;;;;5033361;28;20072;-72
2023/07/19 09:18:57;;;;;;;118.45;7.35;;;;;;;;;;5004809;28;20664;-68
2023/07/19 09:21:38;;;;;;;71.97;5.53;;;;;;;;;;5022642;28;20045;-73
2023/07/19 09:24:09;;;;;;;21.00;2.63;;;;;;;;;;5036479;28;20046;-73
2023/07/19 09:26:43;;;;;;;43.17;5.10;;;;;;;;;;5044020;28;20060;-72
2023/07/19 09:29:11;;;;;;;55.08;5.25;;;;;;;;;;5040255;28;20387;-66
2023/07/19 09:31:58;;;;;;;62.38;5.68;;;;;;;;;;5040977;28;20057;-73
2023/07/19 09:34:28;;;;;;;17.42;2.60;;;;;;;;;;5043343;28;20050;-73
2023/07/19 09:36:55;;;;;;;16.30;2.50;;;;;;;;;;5026885;28;20053;-74
2023/07/19 09:39:22;;;;;;;27.58;3.60;;;;;;;;;;5019426;28;20505;-74
2023/07/19 09:41:48;;;;;;;28.50;3.17;;;;;;;;;;5042723;28;20068;-73
2023/07/19 09:44:16;;;;;;;29.20;3.00;;;;;;;;;;5040334;28;20041;-73
2023/07/19 09:46:46;;;;;;;46.65;4.43;;;;;;;;;;5039958;28;20041;-75
2023/07/19 09:49:13;;;;;;;90.85;7.05;;;;;;;;;;5023461;28;20065;-72
2023/07/19 09:51:41;;;;;;;75.70;5.18;;;;;;;;;;5035426;28;20049;-71
2023/07/19 09:54:09;;;;;;;20.13;2.65;;;;;;;;;;5034930;28;20079;-72
2023/07/19 09:56:36;;;;;;;25.67;2.85;;;;;;;;;;5033942;28;20056;-71
2023/07/19 09:59:04;;;;;;;42.22;4.05;;;;;;;;;;5038114;28;20046;-72
2023/07/19 10:01:31;;;;;;;43.58;4.28;;;;;;;;;;5005810;28;20045;-74
2023/07/19 10:03:58;;;;;;;24.25;2.83;;;;;;;;;;5040115;28;20053;-74
2023/07/19 10:06:29;;;;;;;29.23;3.28;;;;;;;;;;5038202;28;20083;-72
2023/07/19 10:09:14;;;;;;;23.92;2.72;;;;;;;;;;5021809;28;20064;-72
2023/07/19 10:11:42;;;;;;;29.95;3.47;;;;;;;;;;5017016;28;20041;-72
2023/07/19 10:14:09;;;;;;;29.15;3.60;;;;;;;;;;5035091;28;20051;-74
2023/07/19 10:16:59;;;;;;;28.88;2.88;;;;;;;;;;5025318;28;20136;-74
2023/07/19 10:19:26;;;;;;;28.00;3.03;;;;;;;;;;5011571;28;20045;-72
2023/07/19 10:22:11;;;;;;;50.67;4.85;;;;;;;;;;5033523;28;20056;-74
2023/07/19 10:24:37;;;;;;;86.68;7.22;;;;;;;;;;5030428;28;20507;-73
2023/07/19 10:27:08;;;;;;;33.25;3.72;;;;;;;;;;5030727;28;20069;-73
2023/07/19 10:29:38;;;;;;;30.95;3.42;;;;;;;;;;5017723;28;20053;-73
2023/07/19 10:32:06;;;;;;;51.85;4.45;;;;;;;;;;5010880;28;20045;-73
2023/07/19 10:34:33;;;;;;;46.42;4.55;;;;;;;;;;5028844;28;20112;-72
2023/07/19 10:37:11;;;;;;;49.42;4.18;;;;;;;;;;5035728;28;20042;-73
2023/07/19 10:39:37;;;;;;;50.30;4.47;;;;;;;;;;5011005;28;20045;-72
2023/07/19 10:42:04;;;;;;;38.80;3.13;;;;;;;;;;5012041;28;20076;-73
2023/07/19 10:44:31;;;;;;;81.03;6.88;;;;;;;;;;5033340;28;20041;-72
2023/07/19 10:46:58;;;;;;;42.05;3.63;;;;;;;;;;5035436;28;20045;-72
2023/07/19 10:49:26;;;;;;;30.95;3.13;;;;;;;;;;5011991;28;20045;-72
2023/07/19 10:51:57;;;;;;;26.20;2.92;;;;;;;;;;5032045;28;20049;-72
2023/07/19 10:54:25;;;;;;;25.02;3.00;;;;;;;;;;5010026;28;20046;-74
2023/07/19 10:56:53;;;;;;;19.55;2.50;;;;;;;;;;5031172;28;20042;-74
2023/07/19 10:59:19;;;;;;;26.92;2.90;;;;;;;;;;5010006;28;20053;-72
2023/07/19 11:01:46;;;;;;;80.93;6.53;;;;;;;;;;5027872;28;20061;-74
2023/07/19 11:04:13;;;;;;;40.60;3.35;;;;;;;;;;5013834;28;20052;-72
2023/07/19 11:06:53;;;;;;;73.88;5.18;;;;;;;;;;5024659;28;20585;-71
2023/07/19 11:09:22;;;;;;;23.25;2.72;;;;;;;;;;5022640;28;20041;-72
2023/07/19 11:11:49;;;;;;;57.75;4.65;;;;;;;;;;5031094;28;20057;-74
2023/07/19 11:14:26;;;;;;;41.17;3.95;;;;;;;;;;5028916;28;20050;-74
2023/07/19 11:16:56;;;;;;;103.53;8.38;;;;;;;;;;5027322;28;20041;-72
2023/07/19 11:19:36;;;;;;;25.10;2.72;;;;;;;;;;5008926;28;20037;-75
2023/07/19 11:22:04;;;;;;;38.47;3.38;;;;;;;;;;5027529;28;20479;-72
2023/07/19 11:24:34;;;;;;;29.05;2.88;;;;;;;;;;5028964;28;20103;-74
2023/07/19 11:27:01;;;;;;;35.03;3.20;;;;;;;;;;5021230;28;20449;-70
2023/07/19 11:29:31;;;;;;;30.30;3.03;;;;;;;;;;5028804;28;20134;-73
2023/07/19 11:32:16;;;;;;;48.55;4.57;;;;;;;;;;5029184;28;20045;-73
2023/07/19 11:34:59;;;;;;;151.43;12.10;;;;;;;;;;5024435;28;20411;-73
2023/07/19 11:37:27;;;;;;;109.72;7.72;;;;;;;;;;5010438;28;20042;-74
2023/07/19 11:39:57;;;;;;;20.63;2.40;;;;;;;;;;5029247;28;20039;-72
2023/07/19 11:42:43;;;;;;;35.58;3.30;;;;;;;;;;5026671;28;20099;-73
2023/07/19 11:45:11;;;;;;;27.80;3.17;;;;;;;;;;5024734;28;20041;-74
2023/07/19 11:47:38;;;;;;;41.72;4.05;;;;;;;;;;5026644;28;20392;-71
2023/07/19 11:50:05;;;;;;;37.25;3.40;;;;;;;;;;5028724;28;20128;-73
2023/07/19 11:52:40;;;;;;;34.90;3.53;;;;;;;;;;4995827;28;20052;-75
2023/07/19 11:55:07;;;;;;;33.42;3.17;;;;;;;;;;5024043;28;20045;-73
2023/07/19 11:57:33;;;;;;;48.15;4.40;;;;;;;;;;5009876;28;20038;-72
2023/07/19 12:00:00;;;;;;;32.20;2.97;;;;;;;;;;5025939;28;20050;-73
2023/07/19 12:02:26;;;;;;;24.52;2.88;;;;;;;;;;5003572;28;20057;-74
2023/07/19 12:04:54;;;;;;;47.25;4.45;;;;;;;;;;5010785;28;20069;-75
2023/07/19 12:07:21;;;;;;;20.98;2.53;;;;;;;;;;5030027;28;20074;-73
2023/07/19 12:09:47;;;;;;;22.27;2.50;;;;;;;;;;5027596;28;20049;-72
2023/07/19 12:12:14;;;;;;;37.45;3.58;;;;;;;;;;5029883;28;20034;-73
2023/07/19 12:14:40;;;;;;;35.30;3.28;;;;;;;;;;5028094;28;20065;-71
2023/07/19 12:17:07;;;;;;;43.90;4.32;;;;;;;;;;5027996;28;20045;-73
2023/07/19 12:19:34;;;;;;;51.05;4.35;;;;;;;;;;5027153;28;20033;-71
2023/07/19 12:22:00;;;;;;;29.33;3.10;;;;;;;;;;5008495;28;20406;-72
2023/07/19 12:24:39;;;;;;;24.27;3.10;;;;;;;;;;5026227;28;20052;-71
2023/07/19 12:27:06;;;;;;;45.15;4.50;;;;;;;;;;5021874;28;20054;-70
2023/07/19 12:29:33;;;;;;;32.83;3.33;;;;;;;;;;5009736;28;20058;-70
2023/07/19 12:32:19;;;;;;;44.55;4.18;;;;;;;;;;5025263;28;20037;-74
2023/07/19 12:34:46;;;;;;;68.13;6.13;;;;;;;;;;5007855;28;20571;-69
2023/07/19 12:37:13;;;;;;;21.52;2.55;;;;;;;;;;5031490;28;20080;-71
2023/07/19 12:39:40;;;;;;;23.10;3.03;;;;;;;;;;5029990;28;20099;-84
2023/07/19 12:42:07;;;;;;;37.08;3.80;;;;;;;;;;5028458;28;20426;-80
2023/07/19 12:44:35;;;;;;;19.63;2.45;;;;;;;;;;5029977;28;20403;-81
2023/07/19 12:47:02;;;;;;;99.28;7.85;;;;;;;;;;5031587;28;20041;-83
2023/07/19 12:49:29;;;;;;;21.08;2.60;;;;;;;;;;5010711;28;20092;-80
2023/07/19 12:51:56;;;;;;;28.67;3.38;;;;;;;;;;5029767;28;20052;-75
2023/07/19 12:54:23;;;;;;;22.08;2.80;;;;;;;;;;5032737;28;20041;-82
2023/07/19 12:56:49;;;;;;;35.60;3.72;;;;;;;;;;5030096;28;20052;-84
2023/07/19 12:59:16;;;;;;;23.05;2.88;;;;;;;;;;5027438;28;20111;-55
2023/07/19 13:01:42;;;;;;;74.35;5.60;;;;;;;;;;5010032;28;20064;-63
2023/07/19 13:04:10;;;;;;;28.58;3.33;;;;;;;;;;5027895;28;20082;-66
2023/07/19 13:06:37;;;;;;;20.13;2.65;;;;;;;;;;5030058;28;20061;-60
2023/07/19 13:09:06;;;;;;;37.92;3.78;;;;;;;;;;5022308;28;20046;-61
2023/07/19 13:11:38;;;;;;;25.50;3.08;;;;;;;;;;5030293;28;20046;-59
2023/07/19 13:14:05;;;;;;;43.78;4.25;;;;;;;;;;5013770;28;20087;-66
2023/07/19 13:16:32;;;;;;;39.35;4.20;;;;;;;;;;5025796;28;20100;-67
2023/07/19 13:18:59;;;;;;;38.83;3.85;;;;;;;;;;5024852;28;20060;-62
2023/07/19 13:21:26;;;;;;;24.58;3.00;;;;;;;;;;5010069;28;20553;-65
2023/07/19 13:23:52;;;;;;;35.10;3.70;;;;;;;;;;5027072;28;20049;-62
2023/07/19 13:26:20;;;;;;;36.25;3.63;;;;;;;;;;5011186;28;20100;-62
2023/07/19 13:28:48;;;;;;;65.68;5.50;;;;;;;;;;5031953;28;20049;-61
2023/07/19 13:31:16;;;;;;;34.13;3.65;;;;;;;;;;5030026;28;20506;-61
2023/07/19 13:33:43;;;;;;;24.17;3.20;;;;;;;;;;5029329;28;20049;-62
2023/07/19 13:36:09;;;;;;;46.78;4.05;;;;;;;;;;5028552;28;20181;-61
2023/07/19 13:38:39;;;;;;;31.23;3.58;;;;;;;;;;5012677;28;20049;-61
2023/07/19 13:41:08;;;;;;;38.05;3.95;;;;;;;;;;5029540;28;20483;-61
2023/07/19 13:43:35;;;;;;;39.22;3.80;;;;;;;;;;5010183;28;20512;-71
2023/07/19 13:46:02;;;;;;;85.13;6.13;;;;;;;;;;5027859;28;20053;-62
2023/07/19 13:48:29;;;;;;;44.35;3.80;;;;;;;;;;5030457;28;20102;-64
2023/07/19 13:50:57;;;;;;;52.53;4.80;;;;;;;;;;5028832;28;20080;-64
2023/07/19 13:53:24;;;;;;;22.83;2.80;;;;;;;;;;5029529;28;20052;-61
2023/07/19 13:55:50;;;;;;;68.25;5.78;;;;;;;;;;5030692;28;20140;-62
2023/07/19 13:58:17;;;;;;;32.88;3.63;;;;;;;;;;5026057;28;20045;-61
2023/07/19 14:00:43;;;;;;;46.65;4.15;;;;;;;;;;5027304;28;20046;-62
2023/07/19 14:03:11;;;;;;;38.97;3.53;;;;;;;;;;5027674;28;20503;-59
2023/07/19 14:05:38;;;;;;;43.60;3.78;;;;;;;;;;5028463;28;20037;-61
2023/07/19 14:08:05;;;;;;;49.17;4.25;;;;;;;;;;5027672;28;20558;-60
2023/07/19 14:10:32;;;;;;;18.55;2.38;;;;;;;;;;5032371;28;20053;-71
2023/07/19 14:12:58;;;;;;;56.58;5.57;;;;;;;;;;5027220;28;20049;-60
2023/07/19 14:15:26;;;;;;;23.50;3.28;;;;;;;;;;5025452;28;20137;-62
2023/07/19 14:17:52;;;;;;;35.28;3.60;;;;;;;;;;5025783;28;20049;-62
2023/07/19 14:20:19;;;;;;;32.42;3.58;;;;;;;;;;5028102;28;20463;-63
2023/07/19 14:22:45;;;;;;;74.65;6.63;;;;;;;;;;5030486;28;20037;-53
2023/07/19 14:25:13;;;;;;;39.67;4.18;;;;;;;;;;5021723;28;20060;-64
2023/07/19 14:27:40;;;;;;;40.75;3.80;;;;;;;;;;5026733;28;20411;-60
2023/07/19 14:30:07;;;;;;;83.32;6.95;;;;;;;;;;5008648;28;20052;-58
2023/07/19 14:32:34;;;;;;;36.75;3.85;;;;;;;;;;5010718;28;20042;-59
2023/07/19 14:35:01;;;;;;;30.75;3.45;;;;;;;;;;5029276;28;20038;-59
2023/07/19 14:37:29;;;;;;;68.25;5.00;;;;;;;;;;5030881;28;20163;-61